Terminal Aerodrome Forecast
Issued by NWS Amarillo, TX

Home | Current Version | Previous Version | Text Only | Print | Product List | Glossary On
Versions: 1 2 3 4 5 6 7 8 9 10 11 12 13
744
FTUS44 KAMA 122320
TAFDHT
TAF
KDHT 122320Z 1300/1324 16010KT P6SM SKC
     FM130900 18010KT 6SM BR FEW300
     FM131600 21021G29KT P6SM FEW300=

USA.gov is the U.S. government's official web portal to all federal, state and local government web resources and services.